Time;durP1;ratioP1;P1;durP2;ratioP2;P2;SDS_P1;SDS_P2;PMS_P1;PMS_P2;Temp;Humidity;BMP_temperature;BMP_pressure;BME280_temperature;BME280_humidity;BME280_pressure;Samples;Min_cycle;Max_cycle;Signal;HPM_P1;HPM_P2
2021/03/26 00:01:16;;;;;;;33.50;23.27;;;;;;;;;;5114037;28;20654;-65
2021/03/26 00:03:43;;;;;;;33.80;24.77;;;;;;;;;;5114369;28;20199;-66
2021/03/26 00:06:12;;;;;;;34.17;22.98;;;;;;;;;;5113740;28;20287;-66
2021/03/26 00:08:39;;;;;;;36.47;25.27;;;;;;;;;;5113723;28;20224;-66
2021/03/26 00:11:06;;;;;;;35.30;24.77;;;;;;;;;;5114585;28;20203;-65
2021/03/26 00:13:33;;;;;;;32.42;24.30;;;;;;;;;;5113631;28;20317;-65
2021/03/26 00:16:00;;;;;;;33.50;24.60;;;;;;;;;;5114168;28;20198;-65
2021/03/26 00:18:27;;;;;;;38.78;24.80;;;;;;;;;;5114508;28;20194;-65
2021/03/26 00:20:54;;;;;;;37.90;24.27;;;;;;;;;;5115631;28;20767;-65
2021/03/26 00:23:21;;;;;;;35.45;25.13;;;;;;;;;;5118188;28;20282;-65
2021/03/26 00:25:48;;;;;;;37.17;24.77;;;;;;;;;;5117816;28;20284;-65
2021/03/26 00:28:15;;;;;;;36.58;25.45;;;;;;;;;;5117811;28;20553;-66
2021/03/26 00:30:42;;;;;;;37.17;25.75;;;;;;;;;;5118266;28;20283;-66
2021/03/26 00:33:10;;;;;;;38.70;24.20;;;;;;;;;;5117519;28;20218;-65
2021/03/26 00:35:38;;;;;;;32.60;23.10;;;;;;;;;;5117842;28;20284;-65
2021/03/26 00:38:06;;;;;;;35.92;24.50;;;;;;;;;;5117964;28;20657;-66
2021/03/26 00:40:33;;;;;;;38.55;24.98;;;;;;;;;;5117813;28;20246;-65
2021/03/26 00:42:59;;;;;;;46.10;25.95;;;;;;;;;;5117790;28;20299;-64
2021/03/26 00:45:28;;;;;;;34.13;23.23;;;;;;;;;;5118192;28;20613;-65
2021/03/26 00:47:55;;;;;;;36.55;24.23;;;;;;;;;;5117376;28;20331;-65
2021/03/26 00:50:23;;;;;;;37.65;24.73;;;;;;;;;;5117338;28;20286;-64
2021/03/26 00:52:50;;;;;;;35.13;25.05;;;;;;;;;;5117224;28;20202;-64
2021/03/26 00:55:17;;;;;;;32.03;23.38;;;;;;;;;;5117233;28;20254;-65
2021/03/26 00:57:44;;;;;;;39.58;26.50;;;;;;;;;;5117441;28;20199;-65
2021/03/26 01:00:13;;;;;;;33.53;24.25;;;;;;;;;;5117126;28;20711;-65
2021/03/26 01:02:40;;;;;;;34.38;23.55;;;;;;;;;;5117373;28;20236;-64
2021/03/26 01:05:09;;;;;;;43.25;26.85;;;;;;;;;;5117034;28;20198;-65
2021/03/26 01:07:35;;;;;;;40.97;26.23;;;;;;;;;;5117196;28;20255;-65
2021/03/26 01:10:02;;;;;;;35.70;24.65;;;;;;;;;;5117257;28;20228;-65
2021/03/26 01:12:29;;;;;;;36.42;25.38;;;;;;;;;;5117240;28;20298;-65
2021/03/26 01:14:56;;;;;;;42.15;25.23;;;;;;;;;;5116697;28;20762;-66
2021/03/26 01:17:23;;;;;;;40.22;25.70;;;;;;;;;;5116797;28;20271;-65
2021/03/26 01:19:49;;;;;;;37.42;25.95;;;;;;;;;;5117512;28;20231;-66
2021/03/26 01:22:17;;;;;;;46.15;25.55;;;;;;;;;;5117024;28;20234;-65
2021/03/26 01:24:44;;;;;;;40.10;26.52;;;;;;;;;;5116706;28;20298;-65
2021/03/26 01:27:10;;;;;;;40.08;26.40;;;;;;;;;;5117048;28;20284;-65
2021/03/26 01:29:37;;;;;;;39.40;25.20;;;;;;;;;;5116534;28;20198;-66
2021/03/26 01:32:04;;;;;;;40.03;26.98;;;;;;;;;;5116121;28;20230;-65
2021/03/26 01:34:31;;;;;;;42.65;26.35;;;;;;;;;;5116498;28;20300;-65
2021/03/26 01:36:58;;;;;;;42.10;25.70;;;;;;;;;;5116752;28;20225;-64
2021/03/26 01:39:25;;;;;;;37.85;24.15;;;;;;;;;;5117409;28;20198;-64
2021/03/26 01:41:52;;;;;;;40.85;26.15;;;;;;;;;;5116677;28;20193;-65
2021/03/26 01:44:20;;;;;;;43.63;29.30;;;;;;;;;;5116607;27;20236;-65
2021/03/26 01:46:47;;;;;;;44.80;29.38;;;;;;;;;;5116501;28;20278;-65
2021/03/26 01:49:14;;;;;;;39.42;25.13;;;;;;;;;;5116164;28;20294;-64
2021/03/26 01:51:42;;;;;;;40.58;26.35;;;;;;;;;;5116730;28;20277;-65
2021/03/26 01:54:10;;;;;;;38.13;25.13;;;;;;;;;;5115914;27;20303;-64
2021/03/26 01:56:37;;;;;;;43.15;26.02;;;;;;;;;;5115920;28;20230;-65
2021/03/26 01:59:04;;;;;;;43.03;26.17;;;;;;;;;;5115751;28;20234;-64
2021/03/26 02:01:35;;;;;;;40.55;26.58;;;;;;;;;;5116000;28;20274;-65
2021/03/26 02:04:03;;;;;;;43.75;26.50;;;;;;;;;;5116593;28;20218;-64
2021/03/26 02:06:31;;;;;;;42.85;27.98;;;;;;;;;;5116061;28;20281;-64
2021/03/26 02:09:02;;;;;;;40.10;26.58;;;;;;;;;;5116022;28;20241;-65
2021/03/26 02:11:30;;;;;;;43.15;27.45;;;;;;;;;;5115569;28;20274;-65
2021/03/26 02:13:59;;;;;;;40.97;27.33;;;;;;;;;;5115518;28;20259;-64
2021/03/26 02:16:26;;;;;;;42.33;26.73;;;;;;;;;;5115676;27;20281;-64
2021/03/26 02:18:52;;;;;;;44.38;27.77;;;;;;;;;;5115605;28;20290;-65
2021/03/26 02:21:22;;;;;;;39.33;28.35;;;;;;;;;;5115884;28;20225;-64
2021/03/26 02:23:51;;;;;;;41.55;28.63;;;;;;;;;;5115754;28;20286;-65
2021/03/26 02:26:19;;;;;;;38.47;26.73;;;;;;;;;;5115640;27;20600;-65
2021/03/26 02:28:47;;;;;;;40.65;28.05;;;;;;;;;;5115620;28;20229;-65
2021/03/26 02:31:14;;;;;;;42.70;29.33;;;;;;;;;;5115315;28;20204;-65
2021/03/26 02:33:41;;;;;;;46.72;27.77;;;;;;;;;;5115294;28;20253;-65
2021/03/26 02:36:38;;;;;;;42.70;28.27;;;;;;;;;;5115313;28;20323;-65
2021/03/26 02:39:10;;;;;;;39.50;26.52;;;;;;;;;;5072538;28;20205;-64
2021/03/26 02:41:40;;;;;;;49.78;29.25;;;;;;;;;;5107068;28;20280;-65
2021/03/26 02:44:14;;;;;;;44.45;27.27;;;;;;;;;;5115050;28;20707;-64
2021/03/26 02:46:44;;;;;;;43.72;28.27;;;;;;;;;;5115053;27;20256;-65
2021/03/26 02:49:15;;;;;;;40.50;28.15;;;;;;;;;;5115284;28;20192;-64
2021/03/26 02:51:43;;;;;;;43.58;29.08;;;;;;;;;;5115493;27;20189;-64
2021/03/26 02:54:16;;;;;;;46.30;27.75;;;;;;;;;;5114843;28;20221;-65
2021/03/26 02:56:45;;;;;;;47.58;27.73;;;;;;;;;;5115605;28;20284;-64
2021/03/26 02:59:15;;;;;;;43.33;28.55;;;;;;;;;;5114687;28;20314;-65
2021/03/26 03:01:42;;;;;;;44.13;29.15;;;;;;;;;;5115029;28;20298;-64
2021/03/26 03:04:10;;;;;;;44.50;28.55;;;;;;;;;;5115068;28;20292;-64
2021/03/26 03:06:39;;;;;;;41.50;28.45;;;;;;;;;;5114998;28;20281;-64
2021/03/26 03:09:07;;;;;;;44.28;30.00;;;;;;;;;;5114649;28;20289;-64
2021/03/26 03:11:36;;;;;;;51.95;29.67;;;;;;;;;;5114894;28;20290;-65
2021/03/26 03:14:05;;;;;;;45.80;28.65;;;;;;;;;;5115472;27;20747;-65
2021/03/26 03:16:35;;;;;;;47.92;30.55;;;;;;;;;;5114452;28;20281;-66
2021/03/26 03:19:05;;;;;;;52.35;30.58;;;;;;;;;;5114372;28;20254;-65
2021/03/26 03:21:35;;;;;;;49.53;29.30;;;;;;;;;;5114379;28;20288;-64
2021/03/26 03:24:07;;;;;;;45.97;30.08;;;;;;;;;;5114955;28;20273;-66
2021/03/26 03:26:37;;;;;;;42.40;26.25;;;;;;;;;;5114365;27;20273;-65
2021/03/26 03:29:07;;;;;;;50.72;30.02;;;;;;;;;;5114869;28;20710;-65
2021/03/26 03:31:38;;;;;;;44.80;28.52;;;;;;;;;;5114596;28;20239;-65
2021/03/26 03:34:07;;;;;;;41.83;29.70;;;;;;;;;;5115014;28;20247;-65
2021/03/26 03:36:38;;;;;;;49.47;31.63;;;;;;;;;;5114657;28;20202;-66
2021/03/26 03:39:08;;;;;;;45.05;28.25;;;;;;;;;;5114652;28;20270;-64
2021/03/26 03:41:40;;;;;;;47.05;28.98;;;;;;;;;;5114903;28;20281;-64
2021/03/26 03:44:12;;;;;;;46.95;29.33;;;;;;;;;;5114653;28;20272;-64
2021/03/26 03:46:43;;;;;;;52.35;32.70;;;;;;;;;;5114082;28;20186;-65
2021/03/26 03:49:11;;;;;;;48.10;29.35;;;;;;;;;;5114018;28;20325;-65
2021/03/26 03:51:41;;;;;;;48.20;29.60;;;;;;;;;;5113945;28;20252;-65
2021/03/26 03:54:13;;;;;;;51.83;28.83;;;;;;;;;;5114429;28;20300;-65
2021/03/26 03:56:42;;;;;;;55.60;30.90;;;;;;;;;;5113841;28;20648;-65
2021/03/26 03:59:11;;;;;;;54.53;31.85;;;;;;;;;;5113949;28;20313;-65
2021/03/26 04:01:41;;;;;;;53.63;34.13;;;;;;;;;;5114125;28;20276;-65
2021/03/26 04:04:11;;;;;;;51.80;30.90;;;;;;;;;;5114197;28;20249;-65
2021/03/26 04:06:40;;;;;;;48.80;31.45;;;;;;;;;;5113993;28;20237;-65
2021/03/26 04:09:09;;;;;;;45.80;30.10;;;;;;;;;;5114467;28;20192;-64
2021/03/26 04:11:41;;;;;;;57.95;32.28;;;;;;;;;;5113990;28;20338;-65
2021/03/26 04:14:12;;;;;;;50.13;31.77;;;;;;;;;;5113953;28;20298;-65
2021/03/26 04:16:40;;;;;;;51.45;31.50;;;;;;;;;;5114733;28;20219;-65
2021/03/26 04:19:11;;;;;;;47.85;30.30;;;;;;;;;;5113543;28;20243;-65
2021/03/26 04:21:39;;;;;;;51.08;30.92;;;;;;;;;;5114398;28;20268;-66
2021/03/26 04:24:08;;;;;;;51.65;31.65;;;;;;;;;;5113975;28;20199;-65
2021/03/26 04:26:36;;;;;;;58.75;32.90;;;;;;;;;;5113698;28;20298;-66
2021/03/26 04:29:07;;;;;;;56.95;31.02;;;;;;;;;;5113840;28;20280;-65
2021/03/26 04:31:36;;;;;;;54.25;32.70;;;;;;;;;;5113457;28;20244;-65
2021/03/26 04:34:03;;;;;;;53.22;30.55;;;;;;;;;;5113380;28;20691;-65
2021/03/26 04:36:34;;;;;;;58.65;32.03;;;;;;;;;;5113673;28;20283;-65
2021/03/26 04:39:02;;;;;;;53.00;32.50;;;;;;;;;;5114362;28;20209;-65
2021/03/26 04:41:34;;;;;;;52.70;32.80;;;;;;;;;;5113971;28;20225;-65
2021/03/26 04:44:05;;;;;;;52.13;32.60;;;;;;;;;;5113845;28;20182;-65
2021/03/26 04:46:33;;;;;;;54.03;32.92;;;;;;;;;;5113399;28;20201;-65
2021/03/26 04:49:04;;;;;;;50.60;31.83;;;;;;;;;;5113459;28;20246;-66
2021/03/26 04:51:36;;;;;;;55.45;32.70;;;;;;;;;;5113816;28;20281;-65
2021/03/26 04:54:05;;;;;;;57.40;33.45;;;;;;;;;;5113226;28;20697;-65
2021/03/26 04:56:33;;;;;;;58.92;34.35;;;;;;;;;;5113703;28;20280;-65
2021/03/26 04:59:01;;;;;;;59.75;35.60;;;;;;;;;;5113068;28;20194;-65
2021/03/26 05:01:28;;;;;;;61.83;35.13;;;;;;;;;;5113960;28;20240;-65
2021/03/26 05:03:57;;;;;;;63.58;35.60;;;;;;;;;;5113742;28;20193;-66
2021/03/26 05:06:28;;;;;;;52.28;31.92;;;;;;;;;;5113165;28;20288;-65
2021/03/26 05:08:56;;;;;;;55.13;31.98;;;;;;;;;;5116160;28;20610;-64
2021/03/26 05:11:24;;;;;;;49.63;30.98;;;;;;;;;;5117587;28;20647;-65
2021/03/26 05:13:53;;;;;;;61.63;32.05;;;;;;;;;;5116837;28;20703;-64
2021/03/26 05:16:22;;;;;;;53.15;31.63;;;;;;;;;;5117179;28;20612;-65
2021/03/26 05:18:52;;;;;;;64.13;33.33;;;;;;;;;;5117114;28;20274;-67
2021/03/26 05:21:21;;;;;;;58.75;32.05;;;;;;;;;;5116982;28;20280;-66
2021/03/26 05:23:50;;;;;;;58.10;31.88;;;;;;;;;;5117694;28;20237;-66
2021/03/26 05:26:17;;;;;;;55.03;33.10;;;;;;;;;;5117227;28;20619;-67
2021/03/26 05:28:45;;;;;;;52.92;30.80;;;;;;;;;;5116933;28;20261;-66
2021/03/26 05:31:21;;;;;;;55.55;32.00;;;;;;;;;;5115171;28;20353;-65
2021/03/26 05:33:50;;;;;;;55.67;30.88;;;;;;;;;;5116451;28;20209;-66
2021/03/26 05:36:19;;;;;;;57.53;31.50;;;;;;;;;;5116180;28;20282;-66
2021/03/26 05:38:48;;;;;;;53.22;31.85;;;;;;;;;;5116652;28;20192;-66
2021/03/26 05:41:25;;;;;;;51.28;32.63;;;;;;;;;;5116456;28;20544;-67
2021/03/26 05:44:10;;;;;;;63.15;31.38;;;;;;;;;;5116997;28;20177;-67
2021/03/26 05:46:44;;;;;;;58.28;32.53;;;;;;;;;;5116355;28;20228;-66
2021/03/26 05:49:17;;;;;;;63.35;33.20;;;;;;;;;;5116978;28;20214;-66
2021/03/26 05:51:49;;;;;;;56.80;35.28;;;;;;;;;;5115882;28;20278;-66
2021/03/26 05:54:30;;;;;;;59.33;33.33;;;;;;;;;;5116510;28;20249;-67
2021/03/26 05:57:03;;;;;;;56.38;33.67;;;;;;;;;;5116655;27;20232;-66
2021/03/26 05:59:34;;;;;;;59.20;32.40;;;;;;;;;;5116599;28;20291;-66
2021/03/26 06:02:22;;;;;;;53.05;30.90;;;;;;;;;;5114085;28;20313;-66
2021/03/26 06:04:58;;;;;;;56.78;34.15;;;;;;;;;;5114957;28;20229;-67
2021/03/26 06:07:38;;;;;;;49.72;31.77;;;;;;;;;;5115564;28;20528;-67
2021/03/26 06:10:23;;;;;;;48.08;30.45;;;;;;;;;;5116356;28;20545;-68
2021/03/26 06:13:14;;;;;;;52.83;31.73;;;;;;;;;;5115871;28;20196;-67
2021/03/26 06:15:54;;;;;;;51.95;32.50;;;;;;;;;;5115715;28;20703;-67
2021/03/26 06:18:29;;;;;;;48.03;29.42;;;;;;;;;;5114869;28;20264;-67
2021/03/26 06:21:06;;;;;;;56.95;33.10;;;;;;;;;;5114683;28;20277;-66
2021/03/26 06:23:55;;;;;;;56.95;32.25;;;;;;;;;;5114770;28;20545;-66
2021/03/26 06:26:27;;;;;;;54.17;31.35;;;;;;;;;;5114641;27;20225;-66
2021/03/26 06:29:01;;;;;;;56.55;33.08;;;;;;;;;;5114839;28;20244;-67
2021/03/26 06:31:54;;;;;;;56.33;33.53;;;;;;;;;;5114530;28;20221;-66
2021/03/26 06:34:46;;;;;;;59.22;34.20;;;;;;;;;;5115210;28;20293;-67
2021/03/26 06:37:24;;;;;;;48.40;30.67;;;;;;;;;;5115626;28;20325;-67
2021/03/26 06:40:00;;;;;;;50.10;31.77;;;;;;;;;;5114293;27;20187;-65
2021/03/26 06:42:32;;;;;;;57.75;33.60;;;;;;;;;;5114198;28;20194;-66
2021/03/26 06:45:04;;;;;;;51.20;31.55;;;;;;;;;;5114086;28;20529;-66
2021/03/26 06:47:48;;;;;;;50.15;31.60;;;;;;;;;;5114130;28;20274;-66
2021/03/26 06:50:19;;;;;;;65.15;34.38;;;;;;;;;;5115380;28;20185;-67
2021/03/26 06:52:53;;;;;;;53.45;34.35;;;;;;;;;;5115322;28;20213;-66
2021/03/26 06:55:37;;;;;;;58.03;34.03;;;;;;;;;;5114807;28;20213;-66
2021/03/26 06:58:28;;;;;;;51.25;31.27;;;;;;;;;;5115541;28;20690;-66
2021/03/26 07:01:01;;;;;;;50.28;32.20;;;;;;;;;;5099330;28;20640;-66
2021/03/26 07:03:52;;;;;;;49.25;32.03;;;;;;;;;;5114920;28;20650;-66
2021/03/26 07:06:37;;;;;;;48.20;33.03;;;;;;;;;;5114749;28;20193;-66
2021/03/26 07:09:25;;;;;;;47.92;31.33;;;;;;;;;;5114535;28;20195;-66
2021/03/26 07:12:06;;;;;;;52.55;30.80;;;;;;;;;;5110149;28;20195;-67
2021/03/26 07:14:40;;;;;;;47.33;32.33;;;;;;;;;;5102534;28;20230;-66
2021/03/26 07:17:31;;;;;;;51.13;30.63;;;;;;;;;;5115271;28;20215;-65
2021/03/26 07:20:11;;;;;;;50.42;30.95;;;;;;;;;;5114429;28;20297;-67
2021/03/26 07:23:04;;;;;;;52.15;31.73;;;;;;;;;;5114739;28;20181;-66
2021/03/26 07:25:38;;;;;;;49.28;32.10;;;;;;;;;;5114775;28;20233;-64
2021/03/26 07:28:18;;;;;;;49.47;28.83;;;;;;;;;;5115052;28;20280;-65
2021/03/26 07:30:50;;;;;;;43.83;29.52;;;;;;;;;;5114576;27;20182;-65
2021/03/26 07:33:22;;;;;;;46.38;30.08;;;;;;;;;;5114550;28;20280;-66
2021/03/26 07:36:01;;;;;;;46.97;32.38;;;;;;;;;;5114704;28;20326;-66
2021/03/26 07:38:36;;;;;;;49.70;32.45;;;;;;;;;;5114471;28;20188;-66
2021/03/26 07:41:06;;;;;;;43.58;30.63;;;;;;;;;;5114366;28;20271;-66
2021/03/26 07:43:44;;;;;;;44.08;26.80;;;;;;;;;;5114240;28;20217;-65
2021/03/26 07:46:15;;;;;;;46.45;29.33;;;;;;;;;;5114606;28;20277;-65
2021/03/26 07:48:56;;;;;;;43.60;29.63;;;;;;;;;;5113978;28;20213;-66
2021/03/26 07:51:26;;;;;;;38.83;27.45;;;;;;;;;;5113929;28;20231;-67
2021/03/26 07:54:10;;;;;;;42.70;28.58;;;;;;;;;;5114144;28;20267;-66
2021/03/26 07:56:49;;;;;;;39.38;27.63;;;;;;;;;;5114672;28;20585;-66
2021/03/26 07:59:27;;;;;;;47.03;29.88;;;;;;;;;;5113550;28;20233;-66
2021/03/26 08:02:03;;;;;;;45.40;28.50;;;;;;;;;;5113797;28;20720;-67
2021/03/26 08:04:36;;;;;;;42.40;28.15;;;;;;;;;;5114237;28;20234;-67
2021/03/26 08:07:21;;;;;;;39.28;26.80;;;;;;;;;;5113774;28;20222;-66
2021/03/26 08:09:58;;;;;;;41.90;28.27;;;;;;;;;;5113887;28;20283;-67
2021/03/26 08:12:34;;;;;;;39.60;25.23;;;;;;;;;;5114087;28;20293;-66
2021/03/26 08:15:14;;;;;;;36.40;26.10;;;;;;;;;;5113457;28;20297;-66
2021/03/26 08:17:44;;;;;;;43.22;27.33;;;;;;;;;;5114492;28;20251;-66
2021/03/26 08:20:18;;;;;;;42.30;26.05;;;;;;;;;;5114672;28;20218;-65
2021/03/26 08:22:50;;;;;;;38.08;25.88;;;;;;;;;;5114296;28;20601;-66
2021/03/26 08:25:22;;;;;;;39.85;25.23;;;;;;;;;;5114355;28;20243;-66
2021/03/26 08:27:55;;;;;;;32.10;23.90;;;;;;;;;;5113687;28;20605;-66
2021/03/26 08:30:41;;;;;;;37.42;24.23;;;;;;;;;;5113634;28;20596;-65
2021/03/26 08:33:18;;;;;;;34.47;23.83;;;;;;;;;;5114231;28;20189;-66
2021/03/26 08:35:55;;;;;;;36.15;22.05;;;;;;;;;;5113154;28;20262;-66
2021/03/26 08:38:32;;;;;;;36.00;23.58;;;;;;;;;;5113359;28;20182;-66
2021/03/26 08:41:01;;;;;;;31.70;22.48;;;;;;;;;;5113929;28;20286;-66
2021/03/26 08:43:29;;;;;;;33.97;22.58;;;;;;;;;;5117579;28;20203;-66
2021/03/26 08:46:02;;;;;;;29.52;21.90;;;;;;;;;;5117367;28;20736;-67
2021/03/26 08:48:35;;;;;;;30.27;21.73;;;;;;;;;;5118063;28;20272;-66
2021/03/26 08:51:15;;;;;;;30.03;20.77;;;;;;;;;;5117296;28;20278;-66
2021/03/26 08:53:48;;;;;;;29.47;21.87;;;;;;;;;;5117632;27;20961;-66
2021/03/26 08:56:38;;;;;;;36.03;21.95;;;;;;;;;;5118158;28;20449;-66
2021/03/26 08:59:14;;;;;;;29.80;18.93;;;;;;;;;;5117731;27;20185;-66
2021/03/26 09:01:56;;;;;;;24.70;17.37;;;;;;;;;;5117543;28;20525;-66
2021/03/26 09:04:34;;;;;;;25.13;15.70;;;;;;;;;;5117937;28;20575;-66
2021/03/26 09:07:09;;;;;;;33.83;17.93;;;;;;;;;;5117500;28;20188;-66
2021/03/26 09:09:42;;;;;;;21.83;15.00;;;;;;;;;;5116844;28;20444;-67
2021/03/26 09:12:24;;;;;;;26.00;16.80;;;;;;;;;;5116915;28;20490;-67
2021/03/26 09:15:17;;;;;;;28.80;16.43;;;;;;;;;;5117483;28;20832;-66
2021/03/26 09:17:46;;;;;;;29.03;17.80;;;;;;;;;;5117388;28;20438;-66
2021/03/26 09:20:19;;;;;;;21.97;17.20;;;;;;;;;;5116613;28;21011;-66
2021/03/26 09:22:59;;;;;;;24.30;17.10;;;;;;;;;;5117055;28;20505;-66
2021/03/26 09:25:40;;;;;;;24.47;15.90;;;;;;;;;;5117050;28;20458;-66
2021/03/26 09:28:10;;;;;;;20.07;14.00;;;;;;;;;;5117110;28;20453;-66
2021/03/26 09:30:38;;;;;;;20.93;14.97;;;;;;;;;;5117418;28;20442;-66
2021/03/26 09:33:13;;;;;;;18.53;13.60;;;;;;;;;;5116765;28;20488;-67
2021/03/26 09:35:44;;;;;;;20.00;13.27;;;;;;;;;;5117035;28;20823;-66
2021/03/26 09:38:21;;;;;;;17.63;14.30;;;;;;;;;;5116683;28;20473;-66
2021/03/26 09:40:52;;;;;;;20.03;12.50;;;;;;;;;;5116863;28;20427;-67
2021/03/26 09:43:26;;;;;;;17.30;13.10;;;;;;;;;;5116205;28;20476;-66
2021/03/26 09:46:02;;;;;;;18.87;13.00;;;;;;;;;;5116718;28;20500;-68
2021/03/26 09:48:45;;;;;;;16.17;11.90;;;;;;;;;;5116821;28;20419;-67
2021/03/26 09:51:18;;;;;;;18.77;13.10;;;;;;;;;;5114403;28;20446;-67
2021/03/26 09:53:45;;;;;;;20.40;13.40;;;;;;;;;;5115532;27;20480;-67
2021/03/26 09:56:36;;;;;;;20.50;12.87;;;;;;;;;;5116528;28;20477;-66
2021/03/26 09:59:06;;;;;;;19.47;13.30;;;;;;;;;;5100816;28;20542;-66
2021/03/26 10:01:37;;;;;;;19.23;14.10;;;;;;;;;;5116680;28;20852;-66
2021/03/26 10:04:07;;;;;;;20.77;13.53;;;;;;;;;;5115906;28;20465;-66
2021/03/26 10:06:38;;;;;;;22.17;15.30;;;;;;;;;;5116033;28;20493;-66
2021/03/26 10:09:10;;;;;;;23.37;15.33;;;;;;;;;;5115848;28;20438;-66
2021/03/26 10:11:47;;;;;;;23.93;16.40;;;;;;;;;;5115667;28;20438;-66
2021/03/26 10:14:18;;;;;;;19.50;16.20;;;;;;;;;;5116490;28;20553;-66
2021/03/26 10:16:48;;;;;;;20.77;16.10;;;;;;;;;;5116152;28;20463;-67
2021/03/26 10:19:16;;;;;;;25.37;16.77;;;;;;;;;;5116020;27;20424;-66
2021/03/26 10:21:48;;;;;;;22.57;16.97;;;;;;;;;;5115801;28;20476;-66
2021/03/26 10:24:19;;;;;;;24.20;18.53;;;;;;;;;;5116287;28;20466;-66
2021/03/26 10:26:50;;;;;;;25.90;17.83;;;;;;;;;;5116055;28;20435;-66
2021/03/26 10:29:28;;;;;;;20.70;16.73;;;;;;;;;;5116078;28;20427;-67
2021/03/26 10:31:55;;;;;;;23.00;18.20;;;;;;;;;;5115209;28;20441;-67
2021/03/26 10:34:32;;;;;;;25.23;17.53;;;;;;;;;;5114986;28;20526;-67
2021/03/26 10:37:04;;;;;;;25.57;17.97;;;;;;;;;;5115621;28;20435;-65
2021/03/26 10:39:32;;;;;;;26.33;18.60;;;;;;;;;;5115176;28;20488;-67
2021/03/26 10:42:07;;;;;;;26.70;16.93;;;;;;;;;;5115033;28;20446;-66
2021/03/26 10:44:38;;;;;;;18.00;14.00;;;;;;;;;;5115712;28;20438;-67
2021/03/26 10:47:12;;;;;;;20.63;16.20;;;;;;;;;;5115035;28;20517;-66
2021/03/26 10:49:41;;;;;;;18.50;14.50;;;;;;;;;;5115421;28;20421;-66
2021/03/26 10:52:10;;;;;;;19.63;16.40;;;;;;;;;;5114842;28;20572;-66
2021/03/26 10:54:45;;;;;;;22.40;15.47;;;;;;;;;;5114548;27;20551;-66
2021/03/26 10:57:17;;;;;;;19.70;14.07;;;;;;;;;;5115822;28;20600;-67
2021/03/26 10:59:47;;;;;;;19.20;15.13;;;;;;;;;;5114868;28;20565;-66
2021/03/26 11:02:28;;;;;;;20.03;14.23;;;;;;;;;;5115054;28;20485;-66
2021/03/26 11:04:59;;;;;;;14.50;12.53;;;;;;;;;;5102106;28;20506;-67
2021/03/26 11:07:28;;;;;;;19.40;12.93;;;;;;;;;;5115600;28;20470;-67
2021/03/26 11:09:57;;;;;;;17.20;12.67;;;;;;;;;;5114975;28;20439;-66
2021/03/26 11:12:28;;;;;;;17.47;12.13;;;;;;;;;;5114366;28;20657;-66
2021/03/26 11:15:04;;;;;;;15.87;12.27;;;;;;;;;;5114395;28;20978;-66
2021/03/26 11:17:42;;;;;;;14.20;10.57;;;;;;;;;;5115542;28;20495;-67
2021/03/26 11:20:19;;;;;;;15.47;11.63;;;;;;;;;;5114466;28;20426;-67
2021/03/26 11:22:52;;;;;;;19.90;13.63;;;;;;;;;;5114240;28;20434;-67
2021/03/26 11:25:23;;;;;;;14.70;11.80;;;;;;;;;;5114726;28;20471;-66
2021/03/26 11:27:54;;;;;;;20.20;13.50;;;;;;;;;;5114621;28;20439;-67
2021/03/26 11:30:26;;;;;;;13.73;12.17;;;;;;;;;;5114734;28;20419;-67
2021/03/26 11:32:56;;;;;;;18.40;11.47;;;;;;;;;;5114080;28;20506;-67
2021/03/26 11:35:23;;;;;;;15.00;11.37;;;;;;;;;;5114592;28;20559;-67
2021/03/26 11:37:52;;;;;;;14.80;11.30;;;;;;;;;;5114760;28;20538;-67
2021/03/26 11:40:24;;;;;;;14.40;10.97;;;;;;;;;;5113874;27;20496;-66
2021/03/26 11:42:52;;;;;;;16.43;12.27;;;;;;;;;;5114222;28;20418;-68
2021/03/26 11:45:40;;;;;;;22.20;11.70;;;;;;;;;;5114205;28;20773;-67
2021/03/26 11:48:12;;;;;;;17.77;12.27;;;;;;;;;;5109384;28;20913;-67
2021/03/26 11:50:41;;;;;;;15.40;11.13;;;;;;;;;;5113874;28;20929;-66
2021/03/26 11:53:15;;;;;;;15.47;11.03;;;;;;;;;;5114333;28;20524;-66
2021/03/26 11:55:43;;;;;;;17.40;12.37;;;;;;;;;;5114369;28;20547;-66
2021/03/26 11:58:16;;;;;;;13.77;10.37;;;;;;;;;;5113304;28;20490;-66
2021/03/26 12:00:51;;;;;;;11.80;10.27;;;;;;;;;;5114259;28;20514;-66
2021/03/26 12:03:19;;;;;;;18.60;11.33;;;;;;;;;;5114489;28;20826;-67
2021/03/26 12:06:11;;;;;;;15.33;10.07;;;;;;;;;;5113880;28;20472;-67
2021/03/26 12:08:42;;;;;;;11.03;9.77;;;;;;;;;;5113979;28;20908;-66
2021/03/26 12:11:23;;;;;;;15.03;9.90;;;;;;;;;;5113591;28;20505;-68
2021/03/26 12:13:55;;;;;;;13.03;9.77;;;;;;;;;;5113641;28;20423;-66
2021/03/26 12:16:23;;;;;;;10.73;9.10;;;;;;;;;;5114166;28;20470;-66
2021/03/26 12:18:54;;;;;;;12.93;10.57;;;;;;;;;;5113668;28;20944;-66
2021/03/26 12:21:26;;;;;;;13.43;8.90;;;;;;;;;;5114620;28;20846;-67
2021/03/26 12:23:57;;;;;;;12.73;9.63;;;;;;;;;;5113556;28;20481;-66
2021/03/26 12:26:27;;;;;;;13.10;9.73;;;;;;;;;;5113749;28;20426;-67
2021/03/26 12:29:04;;;;;;;22.63;10.10;;;;;;;;;;5113287;28;20459;-66
2021/03/26 12:31:40;;;;;;;13.30;10.87;;;;;;;;;;5113980;28;20431;-67
2021/03/26 12:34:13;;;;;;;11.33;9.90;;;;;;;;;;5113862;28;20891;-67
2021/03/26 12:36:42;;;;;;;13.73;10.20;;;;;;;;;;5113646;28;20484;-67
2021/03/26 12:39:12;;;;;;;13.87;10.40;;;;;;;;;;5113642;28;20450;-67
2021/03/26 12:41:42;;;;;;;11.63;10.40;;;;;;;;;;5113579;28;20442;-66
2021/03/26 12:44:13;;;;;;;15.07;9.83;;;;;;;;;;5113273;28;20464;-68
2021/03/26 12:46:58;;;;;;;17.50;11.57;;;;;;;;;;5113270;28;20470;-68
2021/03/26 12:49:27;;;;;;;13.30;10.20;;;;;;;;;;5113805;28;20965;-67
2021/03/26 12:51:58;;;;;;;16.30;10.40;;;;;;;;;;5113770;28;20860;-67
2021/03/26 12:54:29;;;;;;;11.23;9.57;;;;;;;;;;5113316;28;20506;-69
2021/03/26 12:56:59;;;;;;;14.03;10.10;;;;;;;;;;5113413;28;20535;-68
2021/03/26 12:59:31;;;;;;;14.13;9.00;;;;;;;;;;5113604;28;20553;-68
2021/03/26 13:02:00;;;;;;;17.53;10.73;;;;;;;;;;5113450;28;20499;-68
2021/03/26 13:04:35;;;;;;;13.20;10.20;;;;;;;;;;5113781;28;20445;-67
2021/03/26 13:07:04;;;;;;;11.90;10.10;;;;;;;;;;5114273;28;20827;-68
2021/03/26 13:09:35;;;;;;;15.80;11.10;;;;;;;;;;5113094;28;20440;-68
2021/03/26 13:12:06;;;;;;;11.90;9.93;;;;;;;;;;5113014;28;20934;-68
2021/03/26 13:14:35;;;;;;;17.47;12.30;;;;;;;;;;5113205;28;20498;-68
2021/03/26 13:17:02;;;;;;;16.40;10.00;;;;;;;;;;5113355;28;20444;-67
2021/03/26 13:19:30;;;;;;;14.23;11.80;;;;;;;;;;5113249;28;20478;-68
2021/03/26 13:22:17;;;;;;;13.07;9.97;;;;;;;;;;5113481;28;20556;-67
2021/03/26 13:24:51;;;;;;;14.40;10.83;;;;;;;;;;5108310;28;20551;-67
2021/03/26 13:27:33;;;;;;;12.80;10.90;;;;;;;;;;5112993;28;20462;-68
2021/03/26 13:30:04;;;;;;;15.97;11.30;;;;;;;;;;5115416;28;20509;-67
2021/03/26 13:32:37;;;;;;;14.60;11.90;;;;;;;;;;5116482;28;20517;-68
2021/03/26 13:35:06;;;;;;;14.30;11.00;;;;;;;;;;5116250;28;20470;-67
2021/03/26 13:37:36;;;;;;;11.40;9.20;;;;;;;;;;5117503;28;20788;-68
2021/03/26 13:40:12;;;;;;;13.60;8.90;;;;;;;;;;5116236;28;20436;-68
2021/03/26 13:42:41;;;;;;;20.20;11.37;;;;;;;;;;5117014;28;20844;-68
2021/03/26 13:45:10;;;;;;;11.73;10.30;;;;;;;;;;5115979;28;20479;-67
2021/03/26 13:47:44;;;;;;;11.40;9.73;;;;;;;;;;5116584;28;20450;-68
2021/03/26 13:50:14;;;;;;;15.73;10.20;;;;;;;;;;5116464;28;20429;-68
2021/03/26 13:52:43;;;;;;;15.20;10.10;;;;;;;;;;5116605;28;20871;-67
2021/03/26 13:55:31;;;;;;;13.53;9.70;;;;;;;;;;5116500;28;20565;-68
2021/03/26 13:58:16;;;;;;;13.33;11.20;;;;;;;;;;5111285;28;20452;-69
2021/03/26 14:00:46;;;;;;;17.90;10.07;;;;;;;;;;5105981;28;21011;-66
2021/03/26 14:03:20;;;;;;;20.27;10.57;;;;;;;;;;5116004;28;20451;-68
2021/03/26 14:05:48;;;;;;;16.70;10.30;;;;;;;;;;5115980;28;20428;-69
2021/03/26 14:08:21;;;;;;;14.97;10.10;;;;;;;;;;5116137;28;20439;-69
2021/03/26 14:10:55;;;;;;;13.40;10.33;;;;;;;;;;5115506;28;20577;-68
2021/03/26 14:13:23;;;;;;;13.90;10.10;;;;;;;;;;5115532;28;20514;-68
2021/03/26 14:15:59;;;;;;;17.00;11.97;;;;;;;;;;5115929;28;20515;-68
2021/03/26 14:18:27;;;;;;;13.67;10.33;;;;;;;;;;5115618;28;20426;-68
2021/03/26 14:20:56;;;;;;;16.43;10.23;;;;;;;;;;5113524;28;20979;-68
2021/03/26 14:23:25;;;;;;;14.10;10.20;;;;;;;;;;5115440;28;20510;-68
2021/03/26 14:25:57;;;;;;;13.07;9.20;;;;;;;;;;5114310;28;20478;-68
2021/03/26 14:28:26;;;;;;;14.17;8.83;;;;;;;;;;5115110;28;20453;-68
2021/03/26 14:30:55;;;;;;;10.83;8.30;;;;;;;;;;5115166;28;20507;-70
2021/03/26 14:33:41;;;;;;;10.73;8.40;;;;;;;;;;5114771;28;20534;-69
2021/03/26 14:36:18;;;;;;;9.47;8.50;;;;;;;;;;5115118;28;20455;-68
2021/03/26 14:38:47;;;;;;;8.60;7.70;;;;;;;;;;5115178;28;20509;-69
2021/03/26 14:41:28;;;;;;;11.23;8.27;;;;;;;;;;5114726;28;20479;-68
2021/03/26 14:43:58;;;;;;;12.03;7.73;;;;;;;;;;5115075;28;20901;-68
2021/03/26 14:46:26;;;;;;;12.87;8.27;;;;;;;;;;5115406;28;20834;-68
2021/03/26 14:48:56;;;;;;;15.80;7.67;;;;;;;;;;5114500;28;20504;-68